Ai Maru — JD2031 — position and weather

sailwx.info

Track history (hours):
 
Tides and Currents Weather Stations Pressure Air Temp Water Temp Dewpoint Dewpoint Depression Visibility Wind Speed Wind Dir Waves Ship Positions

Ai Maru

Last reported at 2018-Jan-21 15:28 UTC. Time now 2018-Jan-21 20:22 UTC.
Position N 33°21' E 131°41'.

Length 105 m; draft 6.4 m.

Type: Tanker. MMSI: 431501797.

Date/timePositionNaut miles runAvg speedWind from/ knotsBaromVisibWave heightAir tempDewpointWater temp
2018-Jan-21 15:28N 33°21' E 131°41'511.9
2018-Jan-21 15:00N 33°24' E 131°46'714.2
2018-Jan-21 14:30N 33°28' E 131°54'2513.9
2018-Jan-21 12:44N 33°41' E 132°18'313.8
2018-Jan-21 12:29N 33°43' E 132°22'813.8
2018-Jan-21 11:56N 33°47' E 132°29'714.0
2018-Jan-21 11:27N 33°52' E 132°35'614.2
2018-Jan-21 11:00N 33°56' E 132°41'7 0.7
2018-Jan-21 01:13N 34°01' E 132°47'2 8.4
2018-Jan-21 01:00N 34°00' E 132°45'510.9
2018-Jan-21 00:30N 33°56' E 132°41'712.5
2018-Jan-20 23:58N 33°51' E 132°35'612.0
2018-Jan-20 23:30N 33°47' E 132°30'612.1
2018-Jan-20 23:00N 33°43' E 132°25'612.0
2018-Jan-20 22:29N 33°39' E 132°19'612.7
2018-Jan-20 21:59N 33°35' E 132°14'812.8
2018-Jan-20 21:21N 33°29' E 132°07'513.7
2018-Jan-20 21:00N 33°26' E 132°03'713.5
2018-Jan-20 20:30N 33°20' E 131°59'17 0.5
2018-Jan-19 08:45N 33°04' E 132°06'614.2
2018-Jan-19 08:20N 33°09' E 132°03'514.2
2018-Jan-19 08:00N 33°13' E 132°01'714.8
2018-Jan-19 07:30N 33°20' E 131°58'715.0
2018-Jan-19 07:01N 33°27' E 131°54'815.3
2018-Jan-19 06:30N 33°33' E 131°49'815.4
2018-Jan-19 06:00N 33°40' E 131°45'714.2
2018-Jan-19 05:30N 33°46' E 131°40'715.0
2018-Jan-19 05:00N 33°47' E 131°31'714.8
2018-Jan-19 04:30N 33°49' E 131°22'714.2
2018-Jan-19 04:00N 33°51' E 131°14'510.7
2018-Jan-19 03:30N 33°56' E 131°11'0 0.1
2018-Jan-19 03:00N 33°56' E 131°11'0 0.0
2018-Jan-19 02:28N 33°56' E 131°11'0 0.0
2018-Jan-19 01:58N 33°56' E 131°11'0 0.1
2018-Jan-19 01:28N 33°56' E 131°11'0 0.0
2018-Jan-19 00:58N 33°56' E 131°11'0 0.0
2018-Jan-19 00:28N 33°56' E 131°11'0 0.1
2018-Jan-18 23:59N 33°56' E 131°11'0 0.0
2018-Jan-18 23:30N 33°56' E 131°11'0 0.0
2018-Jan-18 23:00N 33°56' E 131°11'0 0.0
2018-Jan-18 22:30N 33°56' E 131°11'0 0.8
2018-Jan-18 22:00N 33°56' E 131°12'2 4.1
2018-Jan-18 21:30N 33°54' E 131°11'0 0.0
2018-Jan-18 21:00N 33°54' E 131°11'0 0.1
2018-Jan-18 20:30N 33°54' E 131°11'0 0.1
2018-Jan-18 19:57N 33°54' E 131°11'0 0.0
2018-Jan-18 19:30N 33°54' E 131°11'0 0.1
2018-Jan-18 19:00N 33°54' E 131°11'0 0.0
2018-Jan-18 18:30N 33°54' E 131°11'0 0.0
2018-Jan-18 18:00N 33°54' E 131°11'0 0.0
2018-Jan-18 17:30N 33°54' E 131°11'0 0.0
2018-Jan-18 17:00N 33°54' E 131°11'0 0.0
2018-Jan-18 16:30N 33°54' E 131°11'0 0.0
2018-Jan-18 16:00N 33°54' E 131°11'0 0.0
2018-Jan-18 15:30N 33°54' E 131°11'0 0.0
2018-Jan-18 15:00N 33°54' E 131°11'0 0.1
2018-Jan-18 14:30N 33°54' E 131°11'0 0.0
2018-Jan-18 14:00N 33°54' E 131°11'0 0.2
2018-Jan-18 13:27N 33°54' E 131°11'0 0.0
2018-Jan-18 13:00N 33°54' E 131°11'0 0.0
2018-Jan-18 12:30N 33°54' E 131°11'0 0.0
2018-Jan-18 12:00N 33°54' E 131°11'0 0.1
2018-Jan-18 11:30N 33°54' E 131°11'0 0.0
2018-Jan-18 11:00N 33°54' E 131°11'0 0.0
2018-Jan-18 10:30N 33°54' E 131°11'0 0.0
2018-Jan-18 10:00N 33°54' E 131°11'0 0.2
2018-Jan-18 09:30N 33°54' E 131°11'611.3
2018-Jan-18 09:00N 33°51' E 131°17'714.6
2018-Jan-18 08:30N 33°49' E 131°26'714.6
2018-Jan-18 08:00N 33°48' E 131°34'714.1
2018-Jan-18 07:31N 33°46' E 131°42'713.3
2018-Jan-18 07:01N 33°41' E 131°47'713.5
2018-Jan-18 06:30N 33°34' E 131°49'612.8
2018-Jan-18 06:00N 33°28' E 131°49'713.4
2018-Jan-18 05:30N 33°22' E 131°44'712.9
2018-Jan-18 04:59N 33°17' E 131°40'1 1.6
2018-Jan-18 04:26N 33°16' E 131°40'0 0.0
2018-Jan-18 03:56N 33°16' E 131°40'0 0.0
2018-Jan-18 03:26N 33°16' E 131°40'0 0.0
2018-Jan-18 02:55N 33°16' E 131°40'0 0.0
2018-Jan-18 02:25N 33°16' E 131°40'0 0.0
2018-Jan-18 01:55N 33°16' E 131°40'0 0.0
2018-Jan-18 01:26N 33°16' E 131°40'0 0.0
2018-Jan-18 00:44N 33°16' E 131°40'0 0.1
2018-Jan-18 00:00N 33°16' E 131°40'0 0.5
2018-Jan-17 23:57N 33°16' E 131°40'  
2018-Jan-12 02:16N 41°15' E 140°14'311.4
2018-Jan-12 01:58N 41°18' E 140°16'510.6
2018-Jan-12 01:30N 41°21' E 140°21'510.1
2018-Jan-12 01:00N 41°24' E 140°27'510.6
2018-Jan-12 00:30N 41°26' E 140°33'510.4
2018-Jan-12 00:00N 41°29' E 140°39'510.5
2018-Jan-11 23:30N 41°32' E 140°45'611.6
2018-Jan-11 23:00N 41°35' E 140°51'510.2
2018-Jan-11 22:30N 41°36' E 140°58'510.3
2018-Jan-11 22:00N 41°35' E 141°04'5 9.6
2018-Jan-11 21:30N 41°33' E 141°10'610.4
2018-Jan-11 20:59N 41°32' E 141°17'612.3
2018-Jan-11 20:29N 41°30' E 141°25'611.1
2018-Jan-11 19:56N 41°28' E 141°33'  
Track history (hours):
 
Tides and Currents Weather Stations Pressure Air Temp Water Temp Dewpoint Dewpoint Depression Visibility Wind Speed Wind Dir Waves Ship Positions

Ai Maru

Last reported at 2018-Jan-21 15:28 UTC. Time now 2018-Jan-21 20:22 UTC.
Position N 33°21' E 131°41'.

Length 105 m; draft 6.4 m.

Type: Tanker. MMSI: 431501797.

Date/timePositionNaut miles runAvg speedWind from/ knotsBaromVisibWave heightAir tempDewpointWater temp
2018-Jan-21 15:28N 33°21' E 131°41'511.9
2018-Jan-21 15:00N 33°24' E 131°46'714.2
2018-Jan-21 14:30N 33°28' E 131°54'2513.9
2018-Jan-21 12:44N 33°41' E 132°18'313.8
2018-Jan-21 12:29N 33°43' E 132°22'813.8
2018-Jan-21 11:56N 33°47' E 132°29'714.0
2018-Jan-21 11:27N 33°52' E 132°35'614.2
2018-Jan-21 11:00N 33°56' E 132°41'7 0.7
2018-Jan-21 01:13N 34°01' E 132°47'2 8.4
2018-Jan-21 01:00N 34°00' E 132°45'510.9
2018-Jan-21 00:30N 33°56' E 132°41'712.5
2018-Jan-20 23:58N 33°51' E 132°35'612.0
2018-Jan-20 23:30N 33°47' E 132°30'612.1
2018-Jan-20 23:00N 33°43' E 132°25'612.0
2018-Jan-20 22:29N 33°39' E 132°19'612.7
2018-Jan-20 21:59N 33°35' E 132°14'812.8
2018-Jan-20 21:21N 33°29' E 132°07'513.7
2018-Jan-20 21:00N 33°26' E 132°03'713.5
2018-Jan-20 20:30N 33°20' E 131°59'17 0.5
2018-Jan-19 08:45N 33°04' E 132°06'614.2
2018-Jan-19 08:20N 33°09' E 132°03'514.2
2018-Jan-19 08:00N 33°13' E 132°01'714.8
2018-Jan-19 07:30N 33°20' E 131°58'715.0
2018-Jan-19 07:01N 33°27' E 131°54'815.3
2018-Jan-19 06:30N 33°33' E 131°49'815.4
2018-Jan-19 06:00N 33°40' E 131°45'714.2
2018-Jan-19 05:30N 33°46' E 131°40'715.0
2018-Jan-19 05:00N 33°47' E 131°31'714.8
2018-Jan-19 04:30N 33°49' E 131°22'714.2
2018-Jan-19 04:00N 33°51' E 131°14'510.7
2018-Jan-19 03:30N 33°56' E 131°11'0 0.1
2018-Jan-19 03:00N 33°56' E 131°11'0 0.0
2018-Jan-19 02:28N 33°56' E 131°11'0 0.0
2018-Jan-19 01:58N 33°56' E 131°11'0 0.1
2018-Jan-19 01:28N 33°56' E 131°11'0 0.0
2018-Jan-19 00:58N 33°56' E 131°11'0 0.0
2018-Jan-19 00:28N 33°56' E 131°11'0 0.1
2018-Jan-18 23:59N 33°56' E 131°11'0 0.0
2018-Jan-18 23:30N 33°56' E 131°11'0 0.0
2018-Jan-18 23:00N 33°56' E 131°11'0 0.0
2018-Jan-18 22:30N 33°56' E 131°11'0 0.8
2018-Jan-18 22:00N 33°56' E 131°12'2 4.1
2018-Jan-18 21:30N 33°54' E 131°11'0 0.0
2018-Jan-18 21:00N 33°54' E 131°11'0 0.1
2018-Jan-18 20:30N 33°54' E 131°11'0 0.1
2018-Jan-18 19:57N 33°54' E 131°11'0 0.0
2018-Jan-18 19:30N 33°54' E 131°11'0 0.1
2018-Jan-18 19:00N 33°54' E 131°11'0 0.0
2018-Jan-18 18:30N 33°54' E 131°11'0 0.0
2018-Jan-18 18:00N 33°54' E 131°11'0 0.0
2018-Jan-18 17:30N 33°54' E 131°11'0 0.0
2018-Jan-18 17:00N 33°54' E 131°11'0 0.0
2018-Jan-18 16:30N 33°54' E 131°11'0 0.0
2018-Jan-18 16:00N 33°54' E 131°11'0 0.0
2018-Jan-18 15:30N 33°54' E 131°11'0 0.0
2018-Jan-18 15:00N 33°54' E 131°11'0 0.1
2018-Jan-18 14:30N 33°54' E 131°11'0 0.0
2018-Jan-18 14:00N 33°54' E 131°11'0 0.2
2018-Jan-18 13:27N 33°54' E 131°11'0 0.0
2018-Jan-18 13:00N 33°54' E 131°11'0 0.0
2018-Jan-18 12:30N 33°54' E 131°11'0 0.0
2018-Jan-18 12:00N 33°54' E 131°11'0 0.1
2018-Jan-18 11:30N 33°54' E 131°11'0 0.0
2018-Jan-18 11:00N 33°54' E 131°11'0 0.0
2018-Jan-18 10:30N 33°54' E 131°11'0 0.0
2018-Jan-18 10:00N 33°54' E 131°11'0 0.2
2018-Jan-18 09:30N 33°54' E 131°11'611.3
2018-Jan-18 09:00N 33°51' E 131°17'714.6
2018-Jan-18 08:30N 33°49' E 131°26'714.6
2018-Jan-18 08:00N 33°48' E 131°34'714.1
2018-Jan-18 07:31N 33°46' E 131°42'713.3
2018-Jan-18 07:01N 33°41' E 131°47'713.5
2018-Jan-18 06:30N 33°34' E 131°49'612.8
2018-Jan-18 06:00N 33°28' E 131°49'713.4
2018-Jan-18 05:30N 33°22' E 131°44'712.9
2018-Jan-18 04:59N 33°17' E 131°40'1 1.6
2018-Jan-18 04:26N 33°16' E 131°40'0 0.0
2018-Jan-18 03:56N 33°16' E 131°40'0 0.0
2018-Jan-18 03:26N 33°16' E 131°40'0 0.0
2018-Jan-18 02:55N 33°16' E 131°40'0 0.0
2018-Jan-18 02:25N 33°16' E 131°40'0 0.0
2018-Jan-18 01:55N 33°16' E 131°40'0 0.0
2018-Jan-18 01:26N 33°16' E 131°40'0 0.0
2018-Jan-18 00:44N 33°16' E 131°40'0 0.1
2018-Jan-18 00:00N 33°16' E 131°40'0 0.5
2018-Jan-17 23:57N 33°16' E 131°40'  
2018-Jan-12 02:16N 41°15' E 140°14'311.4
2018-Jan-12 01:58N 41°18' E 140°16'510.6
2018-Jan-12 01:30N 41°21' E 140°21'510.1
2018-Jan-12 01:00N 41°24' E 140°27'510.6
2018-Jan-12 00:30N 41°26' E 140°33'510.4
2018-Jan-12 00:00N 41°29' E 140°39'510.5
2018-Jan-11 23:30N 41°32' E 140°45'611.6
2018-Jan-11 23:00N 41°35' E 140°51'510.2
2018-Jan-11 22:30N 41°36' E 140°58'510.3
2018-Jan-11 22:00N 41°35' E 141°04'5 9.6
2018-Jan-11 21:30N 41°33' E 141°10'610.4
2018-Jan-11 20:59N 41°32' E 141°17'612.3
2018-Jan-11 20:29N 41°30' E 141°25'611.1
2018-Jan-11 19:56N 41°28' E 141°33'  

Dump ship's entire track history